Time;durP1;ratioP1;P1;durP2;ratioP2;P2;SDS_P1;SDS_P2;PMS_P1;PMS_P2;Temp;Humidity;BMP_temperature;BMP_pressure;BME280_temperature;BME280_humidity;BME280_pressure;Samples;Min_cycle;Max_cycle;Signal;HPM_P1;HPM_P2
2023/04/09 00:01:59;;;;;;;;;;;5.60;99.90;;;;;;4917135;29;19919;-69
2023/04/09 00:04:24;;;;;;;;;;;5.60;99.90;;;;;;4923065;29;19915;-69
2023/04/09 00:06:50;;;;;;;;;;;5.50;99.90;;;;;;4919842;29;19914;-69
2023/04/09 00:09:16;;;;;;;;;;;5.50;99.90;;;;;;4898485;29;19929;-69
2023/04/09 00:11:42;;;;;;;;;;;5.40;99.90;;;;;;4923045;29;19926;-69
2023/04/09 00:14:07;;;;;;;;;;;5.40;99.90;;;;;;4923826;29;19919;-69
2023/04/09 00:16:33;;;;;;;;;;;5.30;99.90;;;;;;4923097;29;19926;-69
2023/04/09 00:18:59;;;;;;;;;;;5.30;99.90;;;;;;4936413;29;19914;-69
2023/04/09 00:21:26;;;;;;;;;;;5.20;99.90;;;;;;4939485;29;19972;-69
2023/04/09 00:23:51;;;;;;;;;;;5.30;99.90;;;;;;4964943;28;19914;-69
2023/04/09 00:26:17;;;;;;;;;;;5.20;99.90;;;;;;4955415;28;20001;-69
2023/04/09 00:28:43;;;;;;;;;;;5.10;99.90;;;;;;4935339;29;19918;-69
2023/04/09 00:31:09;;;;;;;;;;;5.10;99.90;;;;;;4901810;29;19937;-69
2023/04/09 00:33:35;;;;;;;;;;;5.10;99.90;;;;;;4953984;28;20005;-69
2023/04/09 00:36:00;;;;;;;;;;;5.10;99.90;;;;;;4904265;29;20005;-69
2023/04/09 00:38:26;;;;;;;;;;;5.10;99.90;;;;;;4925197;29;19922;-69
2023/04/09 00:40:52;;;;;;;;;;;5.00;99.90;;;;;;4936961;29;19967;-69
2023/04/09 00:43:18;;;;;;;;;;;5.00;99.90;;;;;;4915334;29;20201;-69
2023/04/09 00:45:43;;;;;;;;;;;5.00;99.90;;;;;;4938118;29;19914;-69
2023/04/09 00:48:10;;;;;;;;;;;4.90;99.90;;;;;;4918030;29;20326;-68
2023/04/09 00:50:36;;;;;;;;;;;4.90;99.90;;;;;;4932103;29;19919;-69
2023/04/09 00:53:01;;;;;;;;;;;4.80;99.90;;;;;;4932963;29;19921;-70
2023/04/09 00:55:27;;;;;;;;;;;4.90;99.90;;;;;;4948369;28;19915;-69
2023/04/09 00:57:52;;;;;;;;;;;4.80;99.90;;;;;;4941608;29;19915;-69
2023/04/09 01:00:18;;;;;;;;;;;4.80;99.90;;;;;;4913817;29;20523;-69
2023/04/09 01:02:44;;;;;;;;;;;4.70;99.90;;;;;;4920731;29;19914;-69
2023/04/09 01:05:10;;;;;;;;;;;4.80;99.90;;;;;;4902328;29;20236;-69
2023/04/09 01:07:46;;;;;;;;;;;4.80;99.90;;;;;;4897871;29;20362;-69
2023/04/09 01:10:20;;;;;;;;;;;4.80;99.90;;;;;;4914669;29;19926;-69
2023/04/09 01:13:05;;;;;;;;;;;4.70;99.90;;;;;;4898932;29;19919;-69
2023/04/09 01:15:37;;;;;;;;;;;4.60;99.90;;;;;;4932727;29;19922;-69
2023/04/09 01:18:28;;;;;;;;;;;4.60;99.90;;;;;;4911057;29;19919;-69
2023/04/09 01:21:01;;;;;;;;;;;4.70;99.90;;;;;;4928698;28;20489;-69
2023/04/09 01:23:27;;;;;;;;;;;4.70;99.90;;;;;;4909631;29;19925;-69
2023/04/09 01:26:03;;;;;;;;;;;4.60;99.90;;;;;;4917210;29;20288;-69
2023/04/09 01:28:32;;;;;;;;;;;4.70;99.90;;;;;;4910065;29;19919;-69
2023/04/09 01:30:58;;;;;;;;;;;4.70;99.90;;;;;;4906129;29;19919;-69
2023/04/09 01:33:24;;;;;;;;;;;4.70;99.90;;;;;;4917845;29;19958;-69
2023/04/09 01:35:49;;;;;;;;;;;4.70;99.90;;;;;;4923463;29;19962;-69
2023/04/09 01:38:15;;;;;;;;;;;4.60;99.90;;;;;;4909505;29;20325;-69
2023/04/09 01:40:41;;;;;;;;;;;4.60;99.90;;;;;;4922371;29;20325;-69
2023/04/09 01:43:07;;;;;;;;;;;4.60;99.90;;;;;;4919962;29;19914;-69
2023/04/09 01:45:33;;;;;;;;;;;4.60;99.90;;;;;;4937301;29;20328;-69
2023/04/09 01:47:58;;;;;;;;;;;4.60;99.90;;;;;;4918556;29;19919;-69
2023/04/09 01:50:24;;;;;;;;;;;4.50;99.90;;;;;;4918239;29;19922;-69
2023/04/09 01:52:50;;;;;;;;;;;4.50;99.90;;;;;;4916252;29;19915;-69
2023/04/09 01:55:16;;;;;;;;;;;4.50;99.90;;;;;;4914652;29;19914;-69
2023/04/09 01:57:42;;;;;;;;;;;4.40;99.90;;;;;;4913331;29;19986;-69
2023/04/09 02:00:09;;;;;;;;;;;4.40;99.90;;;;;;4901789;29;19965;-69
2023/04/09 02:02:36;;;;;;;;;;;4.40;99.90;;;;;;4889115;29;19923;-69
2023/04/09 02:05:02;;;;;;;;;;;4.30;99.90;;;;;;4888802;29;19915;-69
2023/04/09 02:07:28;;;;;;;;;;;4.30;99.90;;;;;;4901248;29;20009;-69
2023/04/09 02:09:54;;;;;;;;;;;4.40;99.90;;;;;;4917165;29;19914;-69
2023/04/09 02:12:19;;;;;;;;;;;4.40;99.90;;;;;;4926673;29;20774;-69
2023/04/09 02:14:45;;;;;;;;;;;4.30;99.90;;;;;;4944229;28;19910;-69
2023/04/09 02:17:11;;;;;;;;;;;4.30;99.90;;;;;;4928301;29;19914;-69
2023/04/09 02:19:40;;;;;;;;;;;4.40;99.90;;;;;;4912294;29;20296;-69
2023/04/09 02:22:06;;;;;;;;;;;4.40;99.90;;;;;;4925751;29;19918;-69
2023/04/09 02:24:32;;;;;;;;;;;4.40;99.90;;;;;;4953666;28;19920;-69
2023/04/09 02:26:57;;;;;;;;;;;4.30;99.90;;;;;;4925316;29;19914;-69
2023/04/09 02:29:23;;;;;;;;;;;4.40;99.90;;;;;;4933734;29;19918;-69
2023/04/09 02:31:51;;;;;;;;;;;4.40;99.90;;;;;;4917319;29;19937;-69
2023/04/09 02:34:18;;;;;;;;;;;4.40;99.90;;;;;;4955681;28;20489;-69
2023/04/09 02:36:43;;;;;;;;;;;4.30;99.90;;;;;;4923521;29;19924;-69
2023/04/09 02:39:09;;;;;;;;;;;4.30;99.90;;;;;;4932252;29;20283;-69
2023/04/09 02:41:35;;;;;;;;;;;4.30;99.90;;;;;;4918444;29;20367;-69
2023/04/09 02:44:01;;;;;;;;;;;4.30;99.90;;;;;;4945127;29;19945;-69
2023/04/09 02:46:27;;;;;;;;;;;4.30;99.90;;;;;;4941766;29;19938;-69
2023/04/09 02:48:53;;;;;;;;;;;4.30;99.90;;;;;;4919884;29;20538;-69
2023/04/09 02:51:19;;;;;;;;;;;4.30;99.90;;;;;;4946020;29;19995;-69
2023/04/09 02:53:45;;;;;;;;;;;4.40;99.90;;;;;;4940098;29;19915;-69
2023/04/09 02:56:10;;;;;;;;;;;4.40;99.90;;;;;;4885491;29;20281;-69
2023/04/09 02:58:36;;;;;;;;;;;4.30;99.90;;;;;;4923184;29;19925;-69
2023/04/09 03:01:02;;;;;;;;;;;4.20;99.90;;;;;;4907259;29;20049;-69
2023/04/09 03:03:29;;;;;;;;;;;4.30;99.90;;;;;;4898785;29;19915;-69
2023/04/09 03:05:55;;;;;;;;;;;4.30;99.90;;;;;;4938605;29;19914;-69
2023/04/09 03:08:21;;;;;;;;;;;4.40;99.90;;;;;;4919530;29;19918;-69
2023/04/09 03:10:46;;;;;;;;;;;4.40;99.90;;;;;;4943870;29;19929;-69
2023/04/09 03:13:12;;;;;;;;;;;4.40;99.90;;;;;;4928612;29;19914;-68
2023/04/09 03:15:38;;;;;;;;;;;4.40;99.90;;;;;;4920125;29;19915;-69
2023/04/09 03:18:03;;;;;;;;;;;4.40;99.90;;;;;;4932324;29;19918;-70
2023/04/09 03:20:29;;;;;;;;;;;4.40;99.90;;;;;;4909842;29;19923;-69
2023/04/09 03:22:55;;;;;;;;;;;4.40;99.90;;;;;;4941712;29;19977;-69
2023/04/09 03:25:20;;;;;;;;;;;4.40;99.90;;;;;;4955571;28;19915;-69
2023/04/09 03:27:46;;;;;;;;;;;4.30;99.90;;;;;;4919295;29;20401;-69
2023/04/09 03:30:11;;;;;;;;;;;4.40;99.90;;;;;;4955331;28;20573;-69
2023/04/09 03:32:37;;;;;;;;;;;4.40;99.90;;;;;;4947703;29;20553;-69
2023/04/09 03:35:03;;;;;;;;;;;4.40;99.90;;;;;;4917951;29;19910;-69
2023/04/09 03:37:29;;;;;;;;;;;4.30;99.90;;;;;;4961920;28;19925;-69
2023/04/09 03:39:54;;;;;;;;;;;4.30;99.90;;;;;;4953034;28;20267;-69
2023/04/09 03:42:21;;;;;;;;;;;4.30;99.90;;;;;;4960894;28;20342;-69
2023/04/09 03:44:46;;;;;;;;;;;4.30;99.90;;;;;;4926962;29;19925;-69
2023/04/09 03:47:13;;;;;;;;;;;4.30;99.90;;;;;;4949122;28;20600;-69
2023/04/09 03:49:39;;;;;;;;;;;4.30;99.90;;;;;;4933686;29;19971;-69
2023/04/09 03:52:05;;;;;;;;;;;4.30;99.90;;;;;;4936008;29;19958;-69
2023/04/09 03:54:31;;;;;;;;;;;4.30;99.90;;;;;;4963111;28;19926;-69
2023/04/09 03:56:56;;;;;;;;;;;4.40;99.90;;;;;;4942343;29;19919;-69
2023/04/09 03:59:22;;;;;;;;;;;4.40;99.90;;;;;;4918894;29;20399;-69
2023/04/09 04:01:48;;;;;;;;;;;4.40;99.90;;;;;;4883384;29;20235;-69
2023/04/09 04:04:14;;;;;;;;;;;4.40;99.90;;;;;;4906086;29;19919;-69
2023/04/09 04:06:39;;;;;;;;;;;4.40;99.90;;;;;;4935657;29;19914;-69
2023/04/09 04:09:06;;;;;;;;;;;4.40;99.90;;;;;;4911852;29;19921;-69
2023/04/09 04:11:31;;;;;;;;;;;4.40;99.90;;;;;;4924462;29;19914;-69
2023/04/09 04:13:57;;;;;;;;;;;4.40;99.90;;;;;;4951526;28;19914;-69
2023/04/09 04:16:22;;;;;;;;;;;4.50;99.90;;;;;;4899264;29;19946;-70
2023/04/09 04:18:48;;;;;;;;;;;4.40;99.90;;;;;;4925768;29;19918;-70
2023/04/09 04:21:15;;;;;;;;;;;4.40;99.90;;;;;;4933849;29;19930;-69
2023/04/09 04:23:41;;;;;;;;;;;4.50;99.90;;;;;;4905601;29;19915;-69
2023/04/09 04:26:10;;;;;;;;;;;4.50;99.90;;;;;;4933539;29;19915;-69
2023/04/09 04:28:36;;;;;;;;;;;4.60;99.90;;;;;;4952141;28;19923;-69
2023/04/09 04:31:01;;;;;;;;;;;4.60;99.90;;;;;;4919016;29;19970;-69
2023/04/09 04:33:27;;;;;;;;;;;4.70;99.90;;;;;;4931276;29;19987;-69
2023/04/09 04:35:53;;;;;;;;;;;4.70;99.90;;;;;;4930586;29;20042;-70
2023/04/09 04:38:18;;;;;;;;;;;4.60;99.90;;;;;;4918214;29;20262;-69
2023/04/09 04:40:44;;;;;;;;;;;4.60;99.90;;;;;;4941388;29;19981;-69
2023/04/09 04:43:09;;;;;;;;;;;4.70;99.90;;;;;;4925956;29;19961;-69
2023/04/09 04:45:35;;;;;;;;;;;4.70;99.90;;;;;;4919438;29;19934;-69
2023/04/09 04:48:01;;;;;;;;;;;4.80;99.90;;;;;;4933080;29;19918;-69
2023/04/09 04:50:26;;;;;;;;;;;4.80;99.90;;;;;;4885235;29;19962;-69
2023/04/09 04:52:52;;;;;;;;;;;4.90;99.90;;;;;;4959249;28;19915;-69
2023/04/09 04:55:18;;;;;;;;;;;4.90;99.90;;;;;;4931352;29;19915;-69
2023/04/09 04:57:44;;;;;;;;;;;4.90;99.90;;;;;;4938999;29;19922;-69
2023/04/09 05:00:10;;;;;;;;;;;4.90;99.90;;;;;;4919739;29;19981;-69
2023/04/09 05:02:35;;;;;;;;;;;5.00;99.90;;;;;;4916144;29;19920;-69
2023/04/09 05:05:01;;;;;;;;;;;5.00;99.90;;;;;;4927410;29;19914;-69
2023/04/09 05:07:27;;;;;;;;;;;5.00;99.90;;;;;;4907481;29;20001;-69
2023/04/09 05:09:52;;;;;;;;;;;5.00;99.90;;;;;;4938911;29;19953;-69
2023/04/09 05:12:18;;;;;;;;;;;5.10;99.90;;;;;;4923993;29;19914;-69
2023/04/09 05:14:44;;;;;;;;;;;5.10;99.90;;;;;;4913367;29;20044;-69
2023/04/09 05:17:10;;;;;;;;;;;5.20;99.90;;;;;;4940267;29;19914;-69
2023/04/09 05:19:35;;;;;;;;;;;5.20;99.90;;;;;;4954592;28;19922;-69
2023/04/09 05:22:01;;;;;;;;;;;5.20;99.90;;;;;;4940501;29;20001;-69
2023/04/09 05:24:27;;;;;;;;;;;5.20;99.90;;;;;;4935177;29;19990;-69
2023/04/09 05:26:52;;;;;;;;;;;5.30;99.90;;;;;;4930354;29;19977;-69
2023/04/09 05:29:18;;;;;;;;;;;5.30;99.90;;;;;;4934128;29;20009;-69
2023/04/09 05:31:43;;;;;;;;;;;5.30;99.90;;;;;;4932608;29;19914;-69
2023/04/09 05:34:10;;;;;;;;;;;5.20;99.90;;;;;;4937452;29;19926;-69
2023/04/09 05:36:35;;;;;;;;;;;5.30;99.90;;;;;;4928571;29;19925;-70
2023/04/09 05:39:01;;;;;;;;;;;5.30;99.90;;;;;;4907185;29;19914;-69
2023/04/09 05:41:26;;;;;;;;;;;5.40;99.90;;;;;;4931495;29;20251;-69
2023/04/09 05:43:52;;;;;;;;;;;5.40;99.90;;;;;;4925642;29;19922;-69
2023/04/09 05:46:18;;;;;;;;;;;5.40;99.90;;;;;;4923059;29;19922;-70
2023/04/09 05:48:43;;;;;;;;;;;5.50;99.90;;;;;;4926817;29;20654;-69
2023/04/09 05:51:09;;;;;;;;;;;5.50;99.90;;;;;;4962203;28;20602;-69
2023/04/09 05:53:35;;;;;;;;;;;5.60;99.90;;;;;;4926594;29;20574;-69
2023/04/09 05:56:00;;;;;;;;;;;5.60;99.90;;;;;;4927985;29;20032;-70
2023/04/09 05:58:27;;;;;;;;;;;5.70;99.90;;;;;;4926919;29;19919;-69
2023/04/09 06:00:53;;;;;;;;;;;5.70;99.90;;;;;;4933605;29;20005;-69
2023/04/09 06:03:19;;;;;;;;;;;5.70;99.90;;;;;;4926601;29;20017;-69
2023/04/09 06:05:45;;;;;;;;;;;5.70;99.90;;;;;;4927152;29;19915;-69
2023/04/09 06:08:11;;;;;;;;;;;5.80;99.90;;;;;;4947920;29;19964;-70
2023/04/09 06:10:38;;;;;;;;;;;5.80;99.90;;;;;;4927538;29;19926;-69
2023/04/09 06:13:03;;;;;;;;;;;5.80;99.90;;;;;;4931910;29;19915;-70
2023/04/09 06:15:29;;;;;;;;;;;5.80;99.90;;;;;;4927341;29;20251;-69
2023/04/09 06:17:54;;;;;;;;;;;5.90;99.90;;;;;;4969023;28;19918;-69
2023/04/09 06:20:20;;;;;;;;;;;5.90;99.90;;;;;;4950879;29;19938;-69
2023/04/09 06:22:46;;;;;;;;;;;5.90;99.90;;;;;;4943068;29;19915;-69
2023/04/09 06:25:12;;;;;;;;;;;5.90;99.90;;;;;;4920001;29;19925;-69
2023/04/09 06:27:37;;;;;;;;;;;6.00;99.90;;;;;;4915829;29;19914;-69
2023/04/09 06:30:03;;;;;;;;;;;6.00;99.90;;;;;;4963838;28;19914;-70
2023/04/09 06:32:29;;;;;;;;;;;6.10;99.90;;;;;;4944905;29;19926;-69
2023/04/09 06:34:54;;;;;;;;;;;6.10;99.90;;;;;;4927104;29;20399;-69
2023/04/09 06:37:20;;;;;;;;;;;6.20;99.90;;;;;;4911900;29;20239;-69
2023/04/09 06:39:45;;;;;;;;;;;6.20;99.90;;;;;;4947467;29;19915;-69
2023/04/09 06:42:11;;;;;;;;;;;6.20;99.90;;;;;;4954395;29;20316;-69
2023/04/09 06:44:37;;;;;;;;;;;6.30;99.90;;;;;;4930341;29;19910;-69
2023/04/09 06:47:02;;;;;;;;;;;6.30;99.90;;;;;;4960319;28;19961;-69
2023/04/09 06:49:28;;;;;;;;;;;6.30;99.90;;;;;;4944132;28;19961;-69
2023/04/09 06:51:54;;;;;;;;;;;6.40;99.90;;;;;;4916721;29;19914;-69
2023/04/09 06:54:20;;;;;;;;;;;6.40;99.90;;;;;;4925653;29;20073;-69
2023/04/09 06:56:46;;;;;;;;;;;6.40;99.90;;;;;;4942151;29;20398;-69
2023/04/09 06:59:12;;;;;;;;;;;6.50;99.90;;;;;;4944853;29;20051;-69
2023/04/09 07:01:37;;;;;;;;;;;6.50;99.90;;;;;;4941692;29;19918;-69
2023/04/09 07:04:03;;;;;;;;;;;6.60;99.90;;;;;;4948455;29;20517;-69
2023/04/09 07:06:29;;;;;;;;;;;6.60;99.90;;;;;;4943896;29;19917;-69
2023/04/09 07:08:55;;;;;;;;;;;6.70;99.90;;;;;;4920418;29;20017;-69
2023/04/09 07:11:20;;;;;;;;;;;6.70;99.90;;;;;;4940372;29;19921;-69
2023/04/09 07:13:46;;;;;;;;;;;6.70;99.90;;;;;;4948844;28;19914;-69
2023/04/09 07:16:11;;;;;;;;;;;6.80;99.90;;;;;;4923309;29;19922;-69
2023/04/09 07:18:37;;;;;;;;;;;6.80;99.90;;;;;;4953406;29;19918;-69
2023/04/09 07:21:03;;;;;;;;;;;6.80;99.90;;;;;;4933711;29;19922;-69
2023/04/09 07:23:28;;;;;;;;;;;6.80;99.90;;;;;;4944429;29;20005;-69
2023/04/09 07:25:54;;;;;;;;;;;6.90;99.90;;;;;;4922649;29;19953;-69
2023/04/09 07:28:20;;;;;;;;;;;6.90;99.90;;;;;;4947119;29;19915;-70
2023/04/09 07:30:45;;;;;;;;;;;6.90;99.90;;;;;;4954293;29;20069;-69
2023/04/09 07:33:11;;;;;;;;;;;7.00;99.90;;;;;;4968254;28;19968;-69
2023/04/09 07:35:37;;;;;;;;;;;7.00;99.90;;;;;;4923574;29;19922;-69
2023/04/09 07:38:02;;;;;;;;;;;7.10;99.90;;;;;;4943712;29;19922;-69
2023/04/09 07:40:28;;;;;;;;;;;7.10;99.90;;;;;;4960333;28;19918;-69
2023/04/09 07:42:54;;;;;;;;;;;7.20;99.90;;;;;;4931913;29;19997;-69
2023/04/09 07:45:21;;;;;;;;;;;7.20;99.90;;;;;;4918898;29;20018;-69
2023/04/09 07:47:47;;;;;;;;;;;7.30;99.90;;;;;;4915555;29;19991;-69
2023/04/09 07:50:13;;;;;;;;;;;7.30;99.90;;;;;;4912677;29;19923;-69
2023/04/09 07:52:40;;;;;;;;;;;7.40;99.90;;;;;;4929814;29;19914;-69
2023/04/09 07:55:06;;;;;;;;;;;7.40;99.90;;;;;;4962182;28;19914;-69
2023/04/09 07:57:32;;;;;;;;;;;7.40;99.90;;;;;;4953165;28;19926;-69
2023/04/09 07:59:57;;;;;;;;;;;7.40;99.90;;;;;;4940182;29;20966;-69
2023/04/09 08:02:23;;;;;;;;;;;7.50;99.90;;;;;;4966923;28;19922;-70
2023/04/09 08:04:49;;;;;;;;;;;7.50;99.90;;;;;;4956956;28;19929;-69
2023/04/09 08:07:15;;;;;;;;;;;7.60;99.90;;;;;;4950717;28;19915;-69
2023/04/09 08:09:40;;;;;;;;;;;7.60;99.90;;;;;;4933642;29;20336;-69
2023/04/09 08:12:06;;;;;;;;;;;7.60;99.90;;;;;;4940806;28;19926;-69
2023/04/09 08:14:31;;;;;;;;;;;7.70;99.90;;;;;;4928147;29;19914;-69
2023/04/09 08:16:57;;;;;;;;;;;7.60;99.90;;;;;;4943406;29;19969;-69
2023/04/09 08:19:23;;;;;;;;;;;7.70;99.90;;;;;;4958691;28;19922;-69
2023/04/09 08:21:49;;;;;;;;;;;7.60;99.90;;;;;;4922528;29;19938;-69
2023/04/09 08:24:15;;;;;;;;;;;7.70;99.90;;;;;;4914131;29;20005;-69
2023/04/09 08:26:41;;;;;;;;;;;7.70;99.90;;;;;;4925250;29;19915;-70
2023/04/09 08:29:07;;;;;;;;;;;7.70;99.90;;;;;;4923189;29;20296;-69
2023/04/09 08:31:32;;;;;;;;;;;7.80;99.90;;;;;;4941092;28;19915;-69
2023/04/09 08:33:58;;;;;;;;;;;7.80;99.90;;;;;;4886553;29;19918;-70
2023/04/09 08:36:25;;;;;;;;;;;7.80;99.90;;;;;;4920376;29;19918;-69
2023/04/09 08:38:51;;;;;;;;;;;7.80;99.90;;;;;;4931922;29;19958;-69
2023/04/09 08:41:23;;;;;;;;;;;7.80;99.90;;;;;;4884809;29;19923;-69
2023/04/09 08:43:49;;;;;;;;;;;7.80;99.90;;;;;;4925670;29;19955;-70
2023/04/09 08:46:17;;;;;;;;;;;7.80;99.90;;;;;;4899888;29;19947;-69
2023/04/09 08:48:44;;;;;;;;;;;7.80;99.90;;;;;;4924923;29;20076;-69
2023/04/09 08:51:13;;;;;;;;;;;7.80;99.90;;;;;;4943688;29;19915;-69
2023/04/09 08:53:41;;;;;;;;;;;7.90;99.90;;;;;;4924202;29;20646;-69
2023/04/09 08:56:06;;;;;;;;;;;7.90;99.90;;;;;;4922100;29;19929;-69
2023/04/09 08:58:32;;;;;;;;;;;7.90;99.90;;;;;;4909540;29;19914;-70
2023/04/09 09:00:58;;;;;;;;;;;7.80;99.90;;;;;;4914612;29;19950;-69
2023/04/09 09:03:23;;;;;;;;;;;7.80;99.90;;;;;;4916797;29;20311;-69
2023/04/09 09:05:49;;;;;;;;;;;7.90;99.90;;;;;;4915351;29;19915;-69
2023/04/09 09:08:22;;;;;;;;;;;7.90;99.90;;;;;;4926939;29;20322;-69
2023/04/09 09:10:48;;;;;;;;;;;7.90;99.90;;;;;;4914547;29;20326;-69
2023/04/09 09:13:21;;;;;;;;;;;7.90;99.90;;;;;;4927159;29;20005;-69
2023/04/09 09:15:49;;;;;;;;;;;7.90;99.90;;;;;;4906218;29;20364;-69
2023/04/09 09:18:15;;;;;;;;;;;8.00;99.90;;;;;;4940811;28;19954;-69
2023/04/09 09:20:41;;;;;;;;;;;8.00;99.90;;;;;;4920395;29;20710;-69
2023/04/09 09:23:07;;;;;;;;;;;8.10;99.90;;;;;;4926938;29;20092;-69
2023/04/09 09:25:40;;;;;;;;;;;8.00;99.90;;;;;;4924962;29;19911;-69
2023/04/09 09:28:09;;;;;;;;;;;8.00;99.90;;;;;;4927272;29;19970;-69
2023/04/09 09:30:36;;;;;;;;;;;8.10;99.90;;;;;;4941337;28;19997;-69
2023/04/09 09:33:04;;;;;;;;;;;8.10;99.90;;;;;;4915064;29;20006;-69
2023/04/09 09:35:30;;;;;;;;;;;8.10;99.90;;;;;;4916821;29;20455;-69
2023/04/09 09:38:00;;;;;;;;;;;8.20;99.90;;;;;;4895684;29;19915;-69
2023/04/09 09:40:26;;;;;;;;;;;8.30;99.90;;;;;;4925874;29;20292;-69
2023/04/09 09:42:58;;;;;;;;;;;8.40;99.90;;;;;;4902677;29;19926;-69
2023/04/09 09:45:24;;;;;;;;;;;8.50;99.90;;;;;;4912625;29;20316;-69
2023/04/09 09:47:50;;;;;;;;;;;8.60;99.90;;;;;;4903547;29;19974;-70
2023/04/09 09:50:16;;;;;;;;;;;8.60;99.90;;;;;;4910147;29;19923;-69
2023/04/09 09:52:43;;;;;;;;;;;8.70;99.90;;;;;;4931043;29;19997;-69
2023/04/09 09:55:09;;;;;;;;;;;8.80;99.90;;;;;;4910509;29;19982;-69
2023/04/09 09:57:35;;;;;;;;;;;8.70;99.90;;;;;;4920471;29;19978;-70
2023/04/09 10:00:02;;;;;;;;;;;8.90;99.90;;;;;;4926382;29;20236;-69
2023/04/09 10:02:31;;;;;;;;;;;9.10;99.90;;;;;;4920924;29;19925;-69
2023/04/09 10:04:59;;;;;;;;;;;9.20;99.90;;;;;;4923180;29;20005;-69
2023/04/09 10:07:25;;;;;;;;;;;9.20;99.90;;;;;;4936377;29;19925;-69
2023/04/09 10:09:51;;;;;;;;;;;9.30;99.90;;;;;;4932501;29;19915;-69
2023/04/09 10:12:18;;;;;;;;;;;9.40;99.90;;;;;;4926932;28;19942;-69
2023/04/09 10:14:43;;;;;;;;;;;9.60;99.90;;;;;;4904469;29;19914;-69
2023/04/09 10:17:09;;;;;;;;;;;9.80;99.90;;;;;;4944075;29;19921;-69
2023/04/09 10:19:37;;;;;;;;;;;10.00;99.90;;;;;;4945706;29;19922;-70
2023/04/09 10:22:04;;;;;;;;;;;10.20;99.90;;;;;;4952161;28;19918;-71
2023/04/09 10:24:30;;;;;;;;;;;9.90;99.90;;;;;;4958934;28;19925;-70
2023/04/09 10:26:57;;;;;;;;;;;10.10;99.90;;;;;;4949634;28;19915;-69
2023/04/09 10:29:26;;;;;;;;;;;10.00;99.90;;;;;;4927198;29;19921;-70
2023/04/09 10:31:55;;;;;;;;;;;10.00;99.90;;;;;;4928320;29;19917;-69
2023/04/09 10:34:21;;;;;;;;;;;9.90;99.90;;;;;;4915073;29;20567;-69
2023/04/09 10:36:54;;;;;;;;;;;9.90;99.90;;;;;;4932387;29;19929;-69
2023/04/09 10:39:20;;;;;;;;;;;10.00;99.90;;;;;;4936023;29;19919;-69
2023/04/09 10:41:47;;;;;;;;;;;10.20;99.90;;;;;;4888660;29;19918;-70
2023/04/09 10:44:23;;;;;;;;;;;10.30;99.90;;;;;;4941183;29;20033;-69
2023/04/09 10:46:49;;;;;;;;;;;10.30;99.90;;;;;;4901262;29;20001;-69
2023/04/09 10:49:21;;;;;;;;;;;10.50;99.90;;;;;;4964288;28;20251;-69
2023/04/09 10:51:49;;;;;;;;;;;10.70;99.90;;;;;;4912098;29;20133;-69
2023/04/09 10:54:33;;;;;;;;;;;10.70;99.90;;;;;;4956288;28;19915;-69
2023/04/09 10:57:23;;;;;;;;;;;10.90;99.90;;;;;;4947250;28;19911;-74
2023/04/09 10:59:49;;;;;;;;;;;11.00;99.90;;;;;;4925572;29;19929;-74
2023/04/09 11:02:27;;;;;;;;;;;11.50;99.90;;;;;;4930573;29;19925;-74
2023/04/09 11:04:59;;;;;;;;;;;11.60;99.90;;;;;;4941108;29;20626;-74
2023/04/09 11:07:26;;;;;;;;;;;11.50;99.90;;;;;;4931206;29;19919;-74
2023/04/09 11:09:52;;;;;;;;;;;11.60;99.90;;;;;;4932834;29;19933;-74
2023/04/09 11:12:17;;;;;;;;;;;11.30;99.90;;;;;;4928347;29;20246;-74
2023/04/09 11:14:43;;;;;;;;;;;11.40;99.90;;;;;;4953067;28;19915;-74
2023/04/09 11:17:09;;;;;;;;;;;11.40;99.90;;;;;;4943930;29;19922;-74
2023/04/09 11:19:35;;;;;;;;;;;11.70;99.90;;;;;;4948483;29;19915;-74
2023/04/09 11:22:03;;;;;;;;;;;12.20;99.90;;;;;;4906919;29;19937;-74
2023/04/09 11:24:39;;;;;;;;;;;12.50;99.90;;;;;;4912044;29;20009;-74
2023/04/09 11:27:04;;;;;;;;;;;12.70;99.90;;;;;;4924949;29;20379;-74
2023/04/09 11:29:30;;;;;;;;;;;12.30;99.90;;;;;;4962571;28;19942;-74
2023/04/09 11:31:55;;;;;;;;;;;12.40;99.90;;;;;;4964730;28;19926;-74
2023/04/09 11:34:21;;;;;;;;;;;12.60;99.90;;;;;;4942007;29;20326;-74
2023/04/09 11:36:50;;;;;;;;;;;12.70;99.90;;;;;;4926463;29;19919;-74
2023/04/09 11:39:15;;;;;;;;;;;12.60;99.90;;;;;;4933123;29;19914;-74
2023/04/09 11:41:42;;;;;;;;;;;12.50;99.90;;;;;;4914604;29;19918;-70
2023/04/09 11:44:07;;;;;;;;;;;12.30;99.90;;;;;;4937210;29;19947;-70
2023/04/09 11:46:33;;;;;;;;;;;12.50;99.90;;;;;;4939993;29;19933;-70
2023/04/09 11:48:59;;;;;;;;;;;12.60;99.90;;;;;;4913032;29;20013;-70
2023/04/09 11:51:29;;;;;;;;;;;12.70;99.90;;;;;;4953012;28;20005;-69
2023/04/09 11:53:55;;;;;;;;;;;12.10;99.90;;;;;;4928401;29;19921;-69
2023/04/09 11:56:21;;;;;;;;;;;11.80;99.90;;;;;;4930836;29;19910;-70
2023/04/09 11:58:47;;;;;;;;;;;11.90;99.90;;;;;;4939811;29;19922;-69
2023/04/09 12:01:13;;;;;;;;;;;12.00;99.90;;;;;;4936981;29;19918;-70
2023/04/09 12:03:38;;;;;;;;;;;12.30;99.90;;;;;;4915373;29;21007;-69
2023/04/09 12:06:04;;;;;;;;;;;12.60;99.90;;;;;;4903791;29;19915;-69
2023/04/09 12:08:34;;;;;;;;;;;12.80;99.00;;;;;;4920138;29;20403;-69
2023/04/09 12:11:07;;;;;;;;;;;12.80;99.60;;;;;;4942633;29;20381;-69
2023/04/09 12:13:34;;;;;;;;;;;13.10;99.30;;;;;;4900471;29;19969;-69
2023/04/09 12:16:01;;;;;;;;;;;13.30;98.70;;;;;;4953387;28;19914;-71
2023/04/09 12:18:26;;;;;;;;;;;13.00;98.10;;;;;;4911403;29;19958;-72
2023/04/09 12:20:52;;;;;;;;;;;13.40;98.40;;;;;;4895467;29;19969;-72
2023/04/09 12:23:18;;;;;;;;;;;13.40;97.90;;;;;;4957137;28;19925;-72
2023/04/09 12:25:44;;;;;;;;;;;13.80;98.60;;;;;;4908725;29;19918;-72
2023/04/09 12:28:16;;;;;;;;;;;13.90;97.80;;;;;;4916575;29;19921;-72
2023/04/09 12:30:42;;;;;;;;;;;14.10;96.50;;;;;;4920989;29;19918;-72
2023/04/09 12:33:08;;;;;;;;;;;14.00;96.00;;;;;;4925283;29;19918;-72
2023/04/09 12:35:34;;;;;;;;;;;14.20;95.90;;;;;;4928493;29;19914;-73
2023/04/09 12:38:00;;;;;;;;;;;14.80;96.90;;;;;;4886897;29;20009;-72
2023/04/09 12:40:25;;;;;;;;;;;14.50;94.10;;;;;;4902502;29;20001;-72
2023/04/09 12:42:51;;;;;;;;;;;14.40;94.20;;;;;;4968194;28;19915;-72
2023/04/09 12:45:17;;;;;;;;;;;14.30;93.00;;;;;;4917483;29;19923;-72
2023/04/09 12:47:42;;;;;;;;;;;14.20;93.00;;;;;;4917991;29;20445;-72
2023/04/09 12:50:09;;;;;;;;;;;14.40;92.50;;;;;;4934075;29;19919;-72
2023/04/09 12:52:34;;;;;;;;;;;14.50;92.80;;;;;;4935839;29;19915;-72
2023/04/09 12:55:00;;;;;;;;;;;14.60;92.40;;;;;;4956678;28;19936;-72
2023/04/09 12:57:26;;;;;;;;;;;15.00;91.80;;;;;;4929302;29;19914;-72
2023/04/09 12:59:51;;;;;;;;;;;15.00;90.50;;;;;;4967883;28;20390;-72
2023/04/09 13:02:18;;;;;;;;;;;14.60;90.40;;;;;;4930184;29;19929;-73
2023/04/09 13:04:43;;;;;;;;;;;14.80;90.10;;;;;;4934834;29;19915;-72
2023/04/09 13:07:10;;;;;;;;;;;14.50;90.10;;;;;;4933980;29;20342;-72
2023/04/09 13:09:36;;;;;;;;;;;15.10;91.90;;;;;;4945908;29;19914;-73
2023/04/09 13:12:02;;;;;;;;;;;15.40;90.60;;;;;;4933503;29;19925;-72
2023/04/09 13:14:28;;;;;;;;;;;15.70;90.00;;;;;;4939842;29;19918;-73
2023/04/09 13:16:55;;;;;;;;;;;16.30;83.90;;;;;;4954833;28;19915;-73
2023/04/09 13:19:20;;;;;;;;;;;16.20;84.90;;;;;;4932252;29;19919;-73
2023/04/09 13:21:46;;;;;;;;;;;16.40;81.00;;;;;;4923615;29;19929;-73
2023/04/09 13:24:11;;;;;;;;;;;16.60;81.40;;;;;;4924045;29;20025;-73
2023/04/09 13:26:37;;;;;;;;;;;16.60;79.50;;;;;;4937626;29;19911;-73
2023/04/09 13:29:03;;;;;;;;;;;16.60;78.20;;;;;;4900451;29;19914;-73
2023/04/09 13:31:29;;;;;;;;;;;16.80;74.70;;;;;;4903605;29;20013;-73
2023/04/09 13:33:54;;;;;;;;;;;16.40;77.20;;;;;;4945390;29;19925;-73
2023/04/09 13:36:20;;;;;;;;;;;16.60;80.80;;;;;;4938697;29;19915;-73
2023/04/09 13:38:45;;;;;;;;;;;16.40;73.60;;;;;;4954014;28;19914;-73
2023/04/09 13:41:11;;;;;;;;;;;16.50;75.80;;;;;;4938396;29;20245;-73
2023/04/09 13:43:37;;;;;;;;;;;16.00;74.90;;;;;;4907107;29;19918;-73
2023/04/09 13:46:03;;;;;;;;;;;16.00;74.80;;;;;;4907928;29;19925;-73
2023/04/09 13:48:29;;;;;;;;;;;15.80;76.40;;;;;;4956524;28;20315;-73
2023/04/09 13:50:55;;;;;;;;;;;15.80;74.30;;;;;;4923457;29;20005;-73
2023/04/09 13:53:23;;;;;;;;;;;16.30;76.90;;;;;;4944809;29;19921;-73
2023/04/09 13:55:48;;;;;;;;;;;16.60;70.60;;;;;;4938009;29;20327;-73
2023/04/09 13:58:14;;;;;;;;;;;16.20;73.20;;;;;;4945233;29;19925;-73
2023/04/09 14:00:40;;;;;;;;;;;16.80;70.50;;;;;;4944282;29;19919;-73
2023/04/09 14:03:05;;;;;;;;;;;17.20;73.70;;;;;;4967153;28;20387;-73
2023/04/09 14:05:31;;;;;;;;;;;17.40;67.00;;;;;;4942036;29;19993;-73
2023/04/09 14:07:57;;;;;;;;;;;17.10;67.30;;;;;;4929354;29;20433;-73
2023/04/09 14:10:22;;;;;;;;;;;16.50;72.00;;;;;;4919450;29;19915;-73
2023/04/09 14:12:50;;;;;;;;;;;17.00;71.00;;;;;;4930069;29;19914;-73
2023/04/09 14:15:15;;;;;;;;;;;16.80;70.40;;;;;;4926639;29;19941;-74
2023/04/09 14:17:42;;;;;;;;;;;17.60;69.20;;;;;;4897799;29;20403;-73
2023/04/09 14:20:07;;;;;;;;;;;17.70;68.10;;;;;;4954803;28;20355;-73
2023/04/09 14:22:33;;;;;;;;;;;17.60;68.60;;;;;;4928413;29;19925;-73